Atlanticbeach, North Carolina
Current Conditions -  °F | °C
As of 10:58 PM on Tuesday 21 Oct 2014 (Local Time) from KMRH Reporting Station
Clear Clear  
Wind Chill: 68°   Ceiling: Unl
Heat Index: 68°   Visibility: 10mi
Dew Point: 61°   Wind: 8mph
Humidity: 78%   Direction: 250°WSW
Pressure: 29.85"   Gusts: NA
Location:  34.6984°N, 76.7775°W
Report Text: KMRH 220258Z AUTO 25007KT 10SM CLR 20/16 A2985 RMK AO2 SLP109 T02000161 58004 TSNO
Loading
Personal Weather Stations






























Interactive Weather Map New forecast layout! Learn more

10-Day Weather Forecast

Advertisements
Track Severe Weather on mobile